Time,TemperatureF,DewpointF,PressureIn,WindDirection,WindDirectionDegrees,WindSpeedMPH,WindSpeedGustMPH,Humidity,HourlyPrecipIn,Conditions,Clouds,dailyrainin,SoftwareType,DateUTC
2013-04-06 00:03:00,77.0,-99.9,-100.00,NW,305,2.0,6.0,-999,-99.99,,,-99.99,,2013-04-06 06:03:00,
2013-04-06 01:40:00,74.0,-99.9,-100.00,WNW,303,6.0,8.0,-999,-99.99,,,-99.99,,2013-04-06 07:40:00,
2013-04-06 01:53:00,75.0,-99.9,-100.00,NW,308,5.0,6.0,-999,-99.99,,,-99.99,,2013-04-06 07:53:00,
2013-04-06 02:02:00,75.0,-99.9,-100.00,NW,322,1.0,7.0,-999,-99.99,,,-99.99,,2013-04-06 08:02:00,
2013-04-06 02:13:00,75.0,-99.9,-100.00,NW,322,1.0,7.0,-999,-99.99,,,-99.99,,2013-04-06 08:13:00,
2013-04-06 02:22:00,74.0,-99.9,-100.00,WNW,303,6.0,8.0,-999,-99.99,,,-99.99,,2013-04-06 08:22:00,
2013-04-06 02:30:00,73.0,-99.9,-100.00,North,6,2.0,4.0,-999,-99.99,,,-99.99,,2013-04-06 08:30:00,
2013-04-06 02:32:00,74.0,-99.9,-100.00,WNW,303,6.0,8.0,-999,-99.99,,,-99.99,,2013-04-06 08:32:00,
2013-04-06 03:02:00,73.0,-99.9,-100.00,North,6,2.0,4.0,-999,-99.99,,,-99.99,,2013-04-06 09:02:00,
2013-04-06 03:13:00,73.0,-99.9,-100.00,North,6,2.0,4.0,-999,-99.99,,,-99.99,,2013-04-06 09:13:00,
2013-04-06 03:22:00,73.0,-99.9,-100.00,North,6,2.0,4.0,-999,-99.99,,,-99.99,,2013-04-06 09:22:00,
2013-04-06 04:05:00,71.0,-99.9,-100.00,WSW,238,3.0,5.0,-999,-99.99,,,-99.99,,2013-04-06 10:05:00,
2013-04-06 04:13:00,71.0,-99.9,-100.00,WSW,238,3.0,5.0,-999,-99.99,,,-99.99,,2013-04-06 10:13:00,
2013-04-06 05:20:00,70.0,-99.9,-100.00,NNE,21,3.0,4.0,-999,-99.99,,,-99.99,,2013-04-06 11:20:00,
2013-04-06 06:03:00,70.0,-99.9,-100.00,NNE,21,3.0,4.0,-999,-99.99,,,-99.99,,2013-04-06 12:03:00,
2013-04-06 06:13:00,70.0,-99.9,-100.00,NNE,21,3.0,4.0,-999,-99.99,,,-99.99,,2013-04-06 12:13:00,
2013-04-06 06:20:00,68.0,-99.9,-100.00,NE,42,1.0,3.0,-999,-99.99,,,-99.99,,2013-04-06 12:20:00,
2013-04-06 06:33:00,69.0,-99.9,-100.00,ENE,66,2.0,4.0,-999,-99.99,,,-99.99,,2013-04-06 12:33:00,
2013-04-06 06:44:00,69.0,-99.9,-100.00,ENE,66,2.0,4.0,-999,-99.99,,,-99.99,,2013-04-06 12:44:00,
2013-04-06 07:03:00,68.0,-99.9,-100.00,NE,42,1.0,3.0,-999,-99.99,,,-99.99,,2013-04-06 13:03:00,
2013-04-06 07:13:00,68.0,-99.9,-100.00,NE,42,1.0,3.0,-999,-99.99,,,-99.99,,2013-04-06 13:13:00,
2013-04-06 07:30:00,73.0,-99.9,-100.00,NNE,12,0.0,3.0,-999,-99.99,,,-99.99,,2013-04-06 13:30:00,
2013-04-06 07:54:00,69.0,-99.9,-100.00,NNW,346,2.0,2.0,-999,-99.99,,,-99.99,,2013-04-06 13:54:00,
2013-04-06 08:05:00,73.0,-99.9,-100.00,NNE,12,0.0,3.0,-999,-99.99,,,-99.99,,2013-04-06 14:05:00,
2013-04-06 08:13:00,73.0,-99.9,-100.00,NNE,12,0.0,3.0,-999,-99.99,,,-99.99,,2013-04-06 14:13:00,
2013-04-06 08:23:00,73.0,-99.9,-100.00,NNE,12,0.0,3.0,-999,-99.99,,,-99.99,,2013-04-06 14:23:00,
2013-04-06 09:34:00,74.0,-99.9,-100.00,WSW,248,2.0,4.0,-999,-99.99,,,-99.99,,2013-04-06 15:34:00,
2013-04-06 09:44:00,74.0,-99.9,-100.00,WSW,248,2.0,4.0,-999,-99.99,,,-99.99,,2013-04-06 15:44:00,
2013-04-06 09:54:00,74.0,-99.9,-100.00,WSW,248,2.0,4.0,-999,-99.99,,,-99.99,,2013-04-06 15:54:00,
2013-04-06 11:33:00,76.0,-99.9,-100.00,WNW,287,2.0,4.0,-999,-99.99,,,-99.99,,2013-04-06 17:33:00,
2013-04-06 11:43:00,76.0,-99.9,-100.00,WNW,287,2.0,4.0,-999,-99.99,,,-99.99,,2013-04-06 17:43:00,
2013-04-06 11:53:00,76.0,-99.9,-100.00,WNW,287,2.0,4.0,-999,-99.99,,,-99.99,,2013-04-06 17:53:00,
2013-04-06 12:04:00,75.0,-99.9,-100.00,NE,43,0.0,3.0,-999,-99.99,,,-99.99,,2013-04-06 18:04:00,
2013-04-06 12:13:00,75.0,-99.9,-100.00,NE,43,0.0,3.0,-999,-99.99,,,-99.99,,2013-04-06 18:13:00,
2013-04-06 13:20:00,79.0,-99.9,-100.00,WNW,286,1.0,4.0,-999,-99.99,,,-99.99,,2013-04-06 19:20:00,
2013-04-06 14:03:00,79.0,-99.9,-100.00,WNW,286,1.0,4.0,-999,-99.99,,,-99.99,,2013-04-06 20:03:00,
2013-04-06 14:13:00,79.0,-99.9,-100.00,WNW,286,1.0,4.0,-999,-99.99,,,-99.99,,2013-04-06 20:13:00,
2013-04-06 14:42:00,82.0,-99.9,-100.00,SW,217,3.0,5.0,-999,-99.99,,,-99.99,,2013-04-06 20:42:00,
2013-04-06 14:53:00,82.0,-99.9,-100.00,SW,217,3.0,5.0,-999,-99.99,,,-99.99,,2013-04-06 20:53:00,
2013-04-06 15:33:00,82.0,-99.9,-100.00,West,281,5.0,7.0,-999,-99.99,,,-99.99,,2013-04-06 21:33:00,
2013-04-06 15:44:00,82.0,-99.9,-100.00,West,281,5.0,7.0,-999,-99.99,,,-99.99,,2013-04-06 21:44:00,
2013-04-06 15:53:00,83.0,-99.9,-100.00,West,267,4.0,9.0,-999,-99.99,,,-99.99,,2013-04-06 21:53:00,
2013-04-06 15:55:00,84.0,-99.9,-100.00,West,262,3.0,7.0,-999,-99.99,,,-99.99,,2013-04-06 21:55:00,
2013-04-06 16:03:00,83.0,-99.9,-100.00,West,267,4.0,9.0,-999,-99.99,,,-99.99,,2013-04-06 22:03:00,
2013-04-06 16:20:00,84.0,-99.9,-100.00,West,260,2.0,7.0,-999,-99.99,,,-99.99,,2013-04-06 22:20:00,
2013-04-06 16:35:00,84.0,-99.9,-100.00,West,262,3.0,7.0,-999,-99.99,,,-99.99,,2013-04-06 22:35:00,
2013-04-06 16:44:00,84.0,-99.9,-100.00,West,262,3.0,7.0,-999,-99.99,,,-99.99,,2013-04-06 22:44:00,
2013-04-06 17:04:00,84.0,-99.9,-100.00,West,260,2.0,7.0,-999,-99.99,,,-99.99,,2013-04-06 23:04:00,
2013-04-06 17:14:00,84.0,-99.9,-100.00,West,260,2.0,7.0,-999,-99.99,,,-99.99,,2013-04-06 23:14:00,
2013-04-06 17:40:00,84.0,-99.9,-100.00,West,262,2.0,6.0,-999,-99.99,,,-99.99,,2013-04-06 23:40:00,
2013-04-06 18:20:00,83.0,-99.9,-100.00,NW,323,1.0,4.0,-999,-99.99,,,-99.99,,2013-04-07 00:20:00,
2013-04-06 18:23:00,84.0,-99.9,-100.00,West,262,2.0,6.0,-999,-99.99,,,-99.99,,2013-04-07 00:23:00,
2013-04-06 18:33:00,84.0,-99.9,-100.00,West,262,2.0,6.0,-999,-99.99,,,-99.99,,2013-04-07 00:33:00,
2013-04-06 19:03:00,83.0,-99.9,-100.00,NW,323,1.0,4.0,-999,-99.99,,,-99.99,,2013-04-07 01:03:00,
2013-04-06 19:12:00,83.0,-99.9,-100.00,NW,323,1.0,4.0,-999,-99.99,,,-99.99,,2013-04-07 01:12:00,
2013-04-06 20:53:00,80.0,-99.9,-100.00,WNW,293,3.0,3.0,-999,-99.99,,,-99.99,,2013-04-07 02:53:00,
2013-04-06 21:03:00,80.0,-99.9,-100.00,WNW,293,3.0,3.0,-999,-99.99,,,-99.99,,2013-04-07 03:03:00,
2013-04-06 21:35:00,79.0,-99.9,-100.00,NNW,327,1.0,2.0,-999,-99.99,,,-99.99,,2013-04-07 03:35:00,
2013-04-06 21:44:00,79.0,-99.9,-100.00,NNW,327,1.0,2.0,-999,-99.99,,,-99.99,,2013-04-07 03:44:00,
2013-04-06 23:02:00,76.0,-99.9,-100.00,South,191,0.0,4.0,-999,-99.99,,,-99.99,,2013-04-07 05:02:00,
2013-04-06 23:12:00,76.0,-99.9,-100.00,South,191,0.0,4.0,-999,-99.99,,,-99.99,,2013-04-07 05:12:00,
2013-04-06 23:23:00,76.0,-99.9,-100.00,South,191,0.0,4.0,-999,-99.99,,,-99.99,,2013-04-07 05:23:00,